createdAt,value
2019-04-23T00:00:20.450Z,0.00
2019-04-23T00:02:18.519Z,0.00
2019-04-23T00:03:20.310Z,0.00
2019-04-23T00:04:18.111Z,0.00
2019-04-23T00:05:33.176Z,0.00
2019-04-23T00:08:44.866Z,0.00
2019-04-23T00:10:26.172Z,0.00
2019-04-23T00:11:26.934Z,0.00
2019-04-23T00:12:31.405Z,0.00
2019-04-23T00:13:24.232Z,0.00
2019-04-23T00:15:23.295Z,0.00
2019-04-23T00:17:26.951Z,0.00
2019-04-23T00:18:32.249Z,0.00
2019-04-23T00:19:26.184Z,0.00
2019-04-23T00:20:23.546Z,0.00
2019-04-23T00:21:23.579Z,0.00
2019-04-23T00:22:26.863Z,0.00
2019-04-23T00:23:17.151Z,0.00
2019-04-23T00:24:38.431Z,0.00
2019-04-23T00:26:30.550Z,0.00
2019-04-23T00:29:32.626Z,0.00
2019-04-23T00:30:32.232Z,0.00
2019-04-23T00:32:28.628Z,0.00
2019-04-23T00:34:26.853Z,0.00
2019-04-23T00:35:23.205Z,0.00
2019-04-23T00:36:27.172Z,0.00
2019-04-23T00:37:27.243Z,0.00
2019-04-23T00:39:24.498Z,0.00
2019-04-23T00:40:20.302Z,0.00
2019-04-23T00:41:17.801Z,0.00
2019-04-23T00:42:20.261Z,0.00
2019-04-23T00:43:22.343Z,0.00
2019-04-23T00:44:26.887Z,0.00
2019-04-23T00:45:28.441Z,0.00
2019-04-23T00:46:22.305Z,0.00
2019-04-23T00:47:25.772Z,0.00
2019-04-23T00:48:31.139Z,0.00
2019-04-23T00:49:29.096Z,0.00
2019-04-23T00:50:24.832Z,0.00
2019-04-23T00:51:16.756Z,0.00
2019-04-23T00:52:24.039Z,0.00
2019-04-23T00:54:17.847Z,0.00
2019-04-23T00:55:35.175Z,0.00
2019-04-23T00:57:24.250Z,0.00
2019-04-23T00:58:43.239Z,0.00
2019-04-23T00:59:24.513Z,0.00
2019-04-23T01:00:26.029Z,0.00
2019-04-23T01:01:18.560Z,0.00
2019-04-23T01:02:22.969Z,0.00
2019-04-23T01:03:17.246Z,0.00
2019-04-23T01:04:18.109Z,0.00
2019-04-23T01:06:21.108Z,0.00
2019-04-23T01:07:18.875Z,0.00
2019-04-23T01:08:18.508Z,0.00
2019-04-23T01:09:14.170Z,0.00
2019-04-23T01:10:20.599Z,0.00
2019-04-23T01:11:20.612Z,0.00
2019-04-23T01:12:22.825Z,0.00
2019-04-23T01:13:22.947Z,0.00
2019-04-23T01:14:21.512Z,0.00
2019-04-23T01:16:15.069Z,0.00
2019-04-23T01:17:27.953Z,0.00
2019-04-23T01:18:32.511Z,0.00
2019-04-23T01:19:24.520Z,0.00
2019-04-23T01:20:14.169Z,0.00
2019-04-23T01:20:57.101Z,0.00
2019-04-23T01:21:57.928Z,0.00
2019-04-23T01:22:57.115Z,0.00
2019-04-23T01:24:02.594Z,0.00
2019-04-23T01:25:04.464Z,0.00
2019-04-23T01:26:16.179Z,0.00
2019-04-23T01:27:33.667Z,0.00
2019-04-23T01:28:23.626Z,0.00
2019-04-23T01:29:23.079Z,0.00
2019-04-23T01:30:23.611Z,0.00
2019-04-23T01:31:24.387Z,0.00
2019-04-23T01:32:20.970Z,0.00
2019-04-23T01:33:29.664Z,0.00
2019-04-23T01:34:28.022Z,0.00
2019-04-23T01:35:18.931Z,0.00
2019-04-23T01:36:28.042Z,0.00
2019-04-23T01:37:25.625Z,0.00
2019-04-23T01:38:30.934Z,0.00
2019-04-23T01:39:23.327Z,0.00
2019-04-23T01:40:26.599Z,0.00
2019-04-23T01:41:24.964Z,0.00
2019-04-23T01:42:29.092Z,0.00
2019-04-23T01:43:23.508Z,0.00
2019-04-23T01:44:35.336Z,0.00
2019-04-23T01:46:21.744Z,0.00
2019-04-23T01:47:24.403Z,0.00
2019-04-23T01:48:18.068Z,0.00
2019-04-23T01:49:29.486Z,0.00
2019-04-23T01:50:27.929Z,0.00
2019-04-23T01:51:27.382Z,0.00
2019-04-23T01:52:24.868Z,0.00
2019-04-23T01:54:17.745Z,0.00
2019-04-23T01:55:26.297Z,0.00
2019-04-23T01:57:28.087Z,0.00
2019-04-23T01:58:33.546Z,0.00
2019-04-23T02:00:22.503Z,0.00
2019-04-23T02:01:29.539Z,0.00
2019-04-23T02:02:29.791Z,0.00
2019-04-23T02:03:20.130Z,0.00
2019-04-23T02:04:22.954Z,0.00
2019-04-23T02:05:27.490Z,0.00
2019-04-23T02:06:19.863Z,0.00
2019-04-23T02:07:24.172Z,0.00
2019-04-23T02:08:20.841Z,0.00
2019-04-23T02:09:16.878Z,0.00
2019-04-23T02:10:29.509Z,0.00
2019-04-23T02:11:18.977Z,0.00
2019-04-23T02:12:18.076Z,0.00
2019-04-23T02:13:24.057Z,0.00
2019-04-23T02:14:20.820Z,0.00
2019-04-23T02:15:25.002Z,0.00
2019-04-23T02:16:19.356Z,0.00
2019-04-23T02:17:25.441Z,0.00
2019-04-23T02:19:26.725Z,0.00
2019-04-23T02:20:23.943Z,0.00
2019-04-23T02:21:15.362Z,0.00
2019-04-23T02:22:28.407Z,0.00
2019-04-23T02:24:22.869Z,0.00
2019-04-23T02:25:35.308Z,0.00
2019-04-23T02:26:26.358Z,0.00
2019-04-23T02:27:22.534Z,0.00
2019-04-23T02:28:19.076Z,0.00
2019-04-23T02:29:28.618Z,0.00
2019-04-23T02:30:40.902Z,0.00
2019-04-23T02:34:45.048Z,0.00
2019-04-23T02:36:29.453Z,0.00
2019-04-23T02:37:36.430Z,0.00
2019-04-23T02:38:31.829Z,0.00
2019-04-23T02:39:29.294Z,0.00
2019-04-23T02:41:26.712Z,0.00
2019-04-23T02:42:40.121Z,0.00
2019-04-23T02:44:24.180Z,0.00
2019-04-23T02:45:30.037Z,0.00
2019-04-23T02:47:25.429Z,0.00
2019-04-23T02:48:26.286Z,0.00
2019-04-23T02:49:26.937Z,0.00
2019-04-23T02:50:36.755Z,0.00
2019-04-23T02:51:27.049Z,0.00
2019-04-23T02:52:21.306Z,0.00
2019-04-23T02:54:37.558Z,0.00
2019-04-23T02:55:38.506Z,0.00
2019-04-23T02:57:24.662Z,0.00
2019-04-23T02:58:38.062Z,0.00
2019-04-23T02:59:28.567Z,0.00
2019-04-23T03:00:36.026Z,0.00
2019-04-23T03:01:31.617Z,0.00
2019-04-23T03:02:37.281Z,0.00
2019-04-23T03:03:34.564Z,0.00
2019-04-23T03:06:38.437Z,0.00
2019-04-23T03:08:45.147Z,0.00
2019-04-23T03:10:24.592Z,0.00
2019-04-23T03:11:28.149Z,0.00
2019-04-23T03:12:37.729Z,0.00
2019-04-23T03:14:24.204Z,0.00
2019-04-23T03:15:39.243Z,0.00
2019-04-23T03:16:45.450Z,0.00
2019-04-23T03:17:14.993Z,0.00
2019-04-23T03:18:39.788Z,0.00
2019-04-23T03:19:24.973Z,0.00
2019-04-23T03:21:37.291Z,0.00
2019-04-23T03:22:15.804Z,0.00
2019-04-23T03:24:33.429Z,0.00
2019-04-23T03:25:31.919Z,0.00
2019-04-23T03:26:40.804Z,0.00
2019-04-23T03:28:29.680Z,0.00
2019-04-23T03:36:13.911Z,0.00
2019-04-23T03:37:33.968Z,0.00
2019-04-23T03:39:34.650Z,0.00
2019-04-23T03:40:13.849Z,0.00
2019-04-23T03:41:27.890Z,4.00
2019-04-23T03:43:26.163Z,0.00
2019-04-23T03:44:20.565Z,4.00
2019-04-23T03:45:38.706Z,4.00
2019-04-23T03:47:24.540Z,4.00
2019-04-23T03:48:26.196Z,4.00
2019-04-23T03:49:21.888Z,4.00
2019-04-23T03:50:35.951Z,8.00
2019-04-23T03:51:28.589Z,8.00
2019-04-23T03:52:27.956Z,4.00
2019-04-23T03:54:31.950Z,8.00
2019-04-23T03:55:32.730Z,8.00
2019-04-23T03:59:29.036Z,20.00
2019-04-23T04:03:32.326Z,32.00
2019-04-23T04:04:34.980Z,36.00
2019-04-23T04:05:32.845Z,40.00
2019-04-23T04:07:29.286Z,52.00
2019-04-23T04:10:16.542Z,68.00
2019-04-23T04:12:29.467Z,84.00
2019-04-23T04:14:35.683Z,104.00
2019-04-23T04:15:43.594Z,112.00
2019-04-23T04:16:18.075Z,120.00
2019-04-23T04:17:19.799Z,128.00
2019-04-23T04:18:30.941Z,144.00
2019-04-23T04:19:31.525Z,148.00
2019-04-23T04:20:25.061Z,164.00
2019-04-23T04:25:26.058Z,228.00
2019-04-23T04:26:20.824Z,244.00
2019-04-23T04:28:28.564Z,268.00
2019-04-23T04:30:22.152Z,300.00
2019-04-23T04:31:26.174Z,312.00
2019-04-23T04:32:11.522Z,328.00
2019-04-23T04:34:43.821Z,372.00
2019-04-23T04:36:21.772Z,396.00
2019-04-23T04:39:19.738Z,436.00
2019-04-23T04:41:34.376Z,484.00
2019-04-23T04:45:30.347Z,544.00
2019-04-23T04:47:21.353Z,552.00
2019-04-23T04:48:16.262Z,564.00
2019-04-23T04:49:23.677Z,604.00
2019-04-23T04:50:35.598Z,600.00
2019-04-23T04:51:29.379Z,644.00
2019-04-23T04:52:34.988Z,608.00
2019-04-23T04:53:38.390Z,624.00
2019-04-23T04:54:22.004Z,664.00
2019-04-23T04:56:20.929Z,672.00
2019-04-23T04:58:28.549Z,708.00
2019-04-23T04:59:18.119Z,720.00
2019-04-23T05:00:30.156Z,732.00
2019-04-23T05:02:30.371Z,736.00
2019-04-23T05:03:25.844Z,772.00
2019-04-23T05:04:19.933Z,788.00
2019-04-23T05:07:27.647Z,836.00
2019-04-23T05:08:26.391Z,860.00
2019-04-23T05:09:19.514Z,876.00
2019-04-23T05:10:28.824Z,900.00
2019-04-23T05:11:28.197Z,896.00
2019-04-23T05:12:21.775Z,904.00
2019-04-23T05:13:33.765Z,920.00
2019-04-23T05:14:12.749Z,940.00
2019-04-23T05:16:18.316Z,956.00
2019-04-23T05:17:16.365Z,972.00
2019-04-23T05:18:23.625Z,1012.00
2019-04-23T05:19:27.396Z,1048.00
2019-04-23T05:20:19.917Z,1108.00
2019-04-23T05:21:30.495Z,1188.00
2019-04-23T05:22:17.072Z,1264.00
2019-04-23T05:23:25.427Z,1308.00
2019-04-23T05:24:14.842Z,1392.00
2019-04-23T05:25:15.476Z,1500.00
2019-04-23T05:26:09.252Z,1636.00
2019-04-23T05:27:15.277Z,1844.00
2019-04-23T05:29:29.119Z,2472.00
2019-04-23T05:30:15.570Z,2924.00
2019-04-23T05:31:14.300Z,2632.00
2019-04-23T05:32:14.720Z,3028.00
2019-04-23T05:34:08.040Z,3432.00
2019-04-23T05:35:09.968Z,3512.00
2019-04-23T05:36:20.158Z,3548.00
2019-04-23T05:37:13.027Z,3588.00
2019-04-23T05:38:32.653Z,3636.00
2019-04-23T05:39:19.298Z,3640.00
2019-04-23T05:40:25.478Z,3656.00
2019-04-23T05:41:16.263Z,3692.00
2019-04-23T05:42:10.747Z,3728.00
2019-04-23T05:43:11.911Z,3700.00
2019-04-23T05:44:15.468Z,3740.00
2019-04-23T05:45:08.402Z,3768.00
2019-04-23T05:46:17.977Z,3816.00
2019-04-23T05:47:17.195Z,3852.00
2019-04-23T05:48:16.227Z,4000.00
2019-04-23T05:49:12.742Z,3928.00
2019-04-23T05:50:21.553Z,3872.00
2019-04-23T05:51:11.251Z,3904.00
2019-04-23T05:52:14.495Z,3948.00
2019-04-23T05:53:14.691Z,3996.00
2019-04-23T05:54:12.754Z,4000.00
2019-04-23T05:55:08.297Z,4032.00
2019-04-23T05:56:06.539Z,4000.00
2019-04-23T05:57:10.287Z,3988.00
2019-04-23T05:58:16.919Z,4016.00
2019-04-23T05:59:12.889Z,4068.00
2019-04-23T06:00:10.689Z,4044.00
2019-04-23T06:01:19.879Z,4084.00
2019-04-23T06:02:05.164Z,4112.00
2019-04-23T06:03:12.008Z,4152.00
2019-04-23T06:04:17.701Z,4176.00
2019-04-23T06:05:10.364Z,4200.00
2019-04-23T06:06:18.038Z,4212.00
2019-04-23T06:07:21.842Z,4232.00
2019-04-23T06:08:16.274Z,4228.00
2019-04-23T06:11:10.496Z,4252.00
2019-04-23T06:12:12.393Z,4216.00
2019-04-23T06:13:12.271Z,4232.00
2019-04-23T06:14:16.984Z,4272.00
2019-04-23T06:16:16.356Z,4316.00
2019-04-23T06:17:09.615Z,4300.00
2019-04-23T06:19:15.217Z,4244.00
2019-04-23T06:20:09.342Z,4216.00
2019-04-23T06:21:12.240Z,4212.00
2019-04-23T06:22:17.289Z,4240.00
2019-04-23T06:23:15.348Z,4248.00
2019-04-23T06:24:17.079Z,4272.00
2019-04-23T06:25:16.421Z,4304.00
2019-04-23T06:28:22.462Z,4300.00
2019-04-23T06:29:15.719Z,4288.00
2019-04-23T06:30:08.349Z,4296.00
2019-04-23T06:31:07.911Z,4304.00
2019-04-23T06:32:06.025Z,4340.00
2019-04-23T06:33:17.492Z,4304.00
2019-04-23T06:34:14.062Z,4308.00
2019-04-23T06:35:09.100Z,4324.00
2019-04-23T06:38:34.525Z,4292.00
2019-04-23T06:39:00.217Z,4336.00
2019-04-23T06:40:08.320Z,4292.00
2019-04-23T06:41:09.900Z,4324.00
2019-04-23T06:42:07.798Z,4304.00
2019-04-23T06:43:04.777Z,4320.00
2019-04-23T06:44:14.436Z,4328.00
2019-04-23T06:45:21.045Z,4308.00
2019-04-23T06:46:05.370Z,4288.00
2019-04-23T06:47:06.656Z,4284.00
2019-04-23T06:48:10.555Z,4320.00
2019-04-23T06:49:10.914Z,4296.00
2019-04-23T06:50:19.543Z,4364.00
2019-04-23T06:51:17.989Z,4300.00
2019-04-23T06:53:02.452Z,4328.00
2019-04-23T06:54:03.198Z,4264.00
2019-04-23T06:55:08.782Z,4288.00
2019-04-23T06:56:14.324Z,4300.00
2019-04-23T06:57:14.147Z,4284.00
2019-04-23T06:58:12.364Z,4304.00
2019-04-23T06:59:08.942Z,4312.00
2019-04-23T07:00:06.273Z,4300.00
2019-04-23T07:01:05.380Z,4312.00
2019-04-23T07:03:09.124Z,4304.00
2019-04-23T07:04:05.549Z,4312.00
2019-04-23T07:05:13.955Z,4324.00
2019-04-23T07:08:05.981Z,4260.00
2019-04-23T07:10:07.325Z,4220.00
2019-04-23T07:11:16.679Z,4196.00
2019-04-23T07:12:05.370Z,4204.00
2019-04-23T07:13:03.179Z,4268.00
2019-04-23T07:13:58.359Z,4216.00
2019-04-23T07:16:02.954Z,4216.00
2019-04-23T07:17:02.399Z,4200.00
2019-04-23T07:18:05.567Z,4188.00
2019-04-23T07:19:09.599Z,4232.00
2019-04-23T07:21:06.767Z,4152.00
2019-04-23T07:22:14.824Z,4228.00
2019-04-23T07:23:04.803Z,3944.00
2019-04-23T07:24:05.381Z,4164.00
2019-04-23T07:25:19.814Z,4104.00
2019-04-23T07:26:19.447Z,4112.00
2019-04-23T07:27:01.303Z,4076.00
2019-04-23T07:28:06.870Z,4040.00
2019-04-23T07:29:18.941Z,4104.00
2019-04-23T07:30:11.595Z,4036.00
2019-04-23T07:31:07.369Z,4024.00
2019-04-23T07:32:05.328Z,3992.00
2019-04-23T07:33:04.126Z,3988.00
2019-04-23T07:35:07.079Z,3948.00
2019-04-23T07:36:15.699Z,3900.00
2019-04-23T07:37:08.705Z,3860.00
2019-04-23T07:38:16.434Z,3860.00
2019-04-23T07:39:06.105Z,3824.00
2019-04-23T07:41:07.299Z,3752.00
2019-04-23T07:42:09.367Z,3792.00
2019-04-23T07:44:14.172Z,3712.00
2019-04-23T07:45:02.102Z,3700.00
2019-04-23T07:46:10.513Z,3764.00
2019-04-23T07:47:20.369Z,3816.00
2019-04-23T07:48:11.005Z,3676.00
2019-04-23T07:49:02.905Z,3748.00
2019-04-23T07:50:16.641Z,3584.00
2019-04-23T07:51:00.807Z,3564.00
2019-04-23T07:52:11.070Z,3548.00
2019-04-23T07:54:07.548Z,3460.00
2019-04-23T07:55:06.806Z,3500.00
2019-04-23T07:57:12.211Z,3352.00
2019-04-23T07:59:03.967Z,3324.00
2019-04-23T08:00:07.565Z,3272.00
2019-04-23T08:02:04.640Z,3276.00
2019-04-23T08:03:14.431Z,3180.00
2019-04-23T08:04:03.107Z,3144.00
2019-04-23T08:05:11.688Z,3084.00
2019-04-23T08:06:02.714Z,3044.00
2019-04-23T08:07:08.356Z,2984.00
2019-04-23T08:08:03.576Z,3068.00
2019-04-23T08:09:03.589Z,3036.00
2019-04-23T08:10:08.119Z,2900.00
2019-04-23T08:11:25.820Z,2868.00
2019-04-23T08:12:06.222Z,2868.00
2019-04-23T08:13:08.764Z,2868.00
2019-04-23T08:16:11.395Z,3000.00
2019-04-23T08:16:58.149Z,2780.00
2019-04-23T08:18:07.022Z,2844.00
2019-04-23T08:18:58.535Z,2760.00
2019-04-23T08:21:06.630Z,3016.00
2019-04-23T08:22:12.702Z,3028.00
2019-04-23T08:23:06.775Z,2848.00
2019-04-23T08:24:00.296Z,2856.00
2019-04-23T08:25:08.454Z,2740.00
2019-04-23T08:26:13.874Z,2864.00
2019-04-23T08:27:07.547Z,2812.00
2019-04-23T08:28:12.091Z,2748.00
2019-04-23T08:29:12.864Z,2772.00
2019-04-23T08:30:00.664Z,2760.00
2019-04-23T08:31:05.600Z,2800.00
2019-04-23T08:32:09.094Z,2812.00
2019-04-23T08:33:04.597Z,3044.00
2019-04-23T08:34:17.218Z,2812.00
2019-04-23T08:35:03.090Z,2788.00
2019-04-23T08:36:04.037Z,2812.00
2019-04-23T08:37:06.346Z,2816.00
2019-04-23T08:38:12.283Z,2876.00
2019-04-23T08:39:07.072Z,2780.00
2019-04-23T08:41:14.219Z,2796.00
2019-04-23T08:42:23.629Z,2800.00
2019-04-23T08:43:08.535Z,2844.00
2019-04-23T08:44:07.119Z,2944.00
2019-04-23T08:45:10.717Z,2908.00
2019-04-23T08:45:59.133Z,2872.00
2019-04-23T08:48:09.013Z,2872.00
2019-04-23T08:49:05.064Z,3008.00
2019-04-23T08:50:02.208Z,2900.00
2019-04-23T08:51:19.430Z,2856.00
2019-04-23T08:52:07.168Z,3168.00
2019-04-23T08:53:10.647Z,2936.00
2019-04-23T08:54:03.052Z,2848.00
2019-04-23T08:55:16.919Z,3188.00
2019-04-23T08:56:15.468Z,2972.00
2019-04-23T08:57:02.763Z,2960.00
2019-04-23T08:58:02.231Z,2900.00
2019-04-23T08:59:07.411Z,2948.00
2019-04-23T09:00:18.693Z,2972.00
2019-04-23T09:02:20.705Z,2968.00
2019-04-23T09:03:06.137Z,3024.00
2019-04-23T09:04:00.484Z,2960.00
2019-04-23T09:05:09.595Z,3020.00
2019-04-23T09:07:04.410Z,2948.00
2019-04-23T09:08:08.279Z,2904.00
2019-04-23T09:08:56.892Z,3004.00
2019-04-23T09:10:07.712Z,2960.00
2019-04-23T09:11:13.847Z,3172.00
2019-04-23T09:11:58.099Z,3112.00
2019-04-23T09:13:26.136Z,3088.00
2019-04-23T09:13:56.258Z,3028.00
2019-04-23T09:15:01.833Z,3020.00
2019-04-23T09:17:06.862Z,3184.00
2019-04-23T09:18:02.821Z,3044.00
2019-04-23T09:19:03.898Z,2956.00
2019-04-23T09:20:58.594Z,3008.00
2019-04-23T09:22:08.657Z,3012.00
2019-04-23T09:22:55.126Z,2996.00
2019-04-23T09:23:59.066Z,3048.00
2019-04-23T09:25:04.027Z,3004.00
2019-04-23T09:25:57.765Z,2996.00
2019-04-23T09:27:07.418Z,3068.00
2019-04-23T09:27:59.839Z,3060.00
2019-04-23T09:28:58.002Z,3004.00
2019-04-23T09:30:06.992Z,3012.00
2019-04-23T09:31:04.927Z,2924.00
2019-04-23T09:32:59.979Z,3052.00
2019-04-23T09:34:00.576Z,3044.00
2019-04-23T09:35:12.927Z,3128.00
2019-04-23T09:35:59.253Z,3092.00
2019-04-23T09:37:04.714Z,3064.00
2019-04-23T09:37:59.698Z,3056.00
2019-04-23T09:39:00.137Z,3100.00
2019-04-23T09:40:13.939Z,3132.00
2019-04-23T09:41:15.199Z,3388.00
2019-04-23T09:42:03.941Z,3108.00
2019-04-23T09:43:00.971Z,3192.00
2019-04-23T09:44:07.941Z,3152.00
2019-04-23T09:46:06.458Z,3132.00
2019-04-23T09:47:08.352Z,3284.00
2019-04-23T09:50:01.715Z,3212.00
2019-04-23T09:52:02.440Z,3100.00
2019-04-23T09:54:04.436Z,3212.00
2019-04-23T09:55:04.756Z,3144.00
2019-04-23T09:55:57.497Z,3128.00
2019-04-23T09:56:52.599Z,3160.00
2019-04-23T09:58:02.291Z,3220.00
2019-04-23T09:59:02.357Z,3152.00
2019-04-23T09:59:58.166Z,3188.00
2019-04-23T10:00:54.679Z,3156.00
2019-04-23T10:01:49.810Z,3180.00
2019-04-23T10:02:49.839Z,3336.00
2019-04-23T10:03:41.668Z,3196.00
2019-04-23T10:04:44.822Z,3444.00
2019-04-23T10:05:39.995Z,3192.00
2019-04-23T10:06:36.488Z,3168.00
2019-04-23T10:07:46.294Z,3212.00
2019-04-23T10:08:37.718Z,3156.00
2019-04-23T10:09:32.129Z,3188.00
2019-04-23T10:10:32.256Z,3368.00
2019-04-23T10:11:30.617Z,3164.00
2019-04-23T10:12:30.513Z,3088.00
2019-04-23T10:13:31.675Z,3136.00
2019-04-23T10:14:30.468Z,3140.00
2019-04-23T10:15:34.974Z,3136.00
2019-04-23T10:16:34.107Z,3140.00
2019-04-23T10:17:31.811Z,3260.00
2019-04-23T10:18:31.030Z,3164.00
2019-04-23T10:19:30.758Z,3216.00
2019-04-23T10:20:30.882Z,3236.00
2019-04-23T10:21:31.185Z,3200.00
2019-04-23T10:22:33.689Z,3176.00
2019-04-23T10:23:31.456Z,3216.00
2019-04-23T10:24:30.943Z,3240.00
2019-04-23T10:25:30.234Z,3116.00
2019-04-23T10:26:30.295Z,3104.00
2019-04-23T10:27:29.770Z,3212.00
2019-04-23T10:28:29.744Z,3148.00
2019-04-23T10:29:30.005Z,3016.00
2019-04-23T10:30:30.972Z,3100.00
2019-04-23T10:31:29.580Z,3012.00
2019-04-23T10:32:29.850Z,2992.00
2019-04-23T10:33:29.706Z,3068.00
2019-04-23T10:34:42.245Z,3112.00
2019-04-23T10:35:38.704Z,3016.00
2019-04-23T10:36:31.696Z,3048.00
2019-04-23T10:37:36.747Z,3040.00
2019-04-23T10:38:30.677Z,3084.00
2019-04-23T10:39:35.297Z,3008.00
2019-04-23T10:40:33.856Z,3016.00
2019-04-23T10:41:30.609Z,3080.00
2019-04-23T10:42:31.458Z,2964.00
2019-04-23T10:43:30.910Z,2988.00
2019-04-23T10:44:30.645Z,2980.00
2019-04-23T10:45:50.937Z,2984.00
2019-04-23T10:46:49.225Z,2844.00
2019-04-23T10:48:03.612Z,2944.00
2019-04-23T10:49:00.623Z,3068.00
2019-04-23T10:50:00.254Z,3152.00
2019-04-23T10:51:17.179Z,3300.00
2019-04-23T10:51:59.833Z,3084.00
2019-04-23T10:53:05.128Z,3056.00
2019-04-23T10:53:52.245Z,3296.00
2019-04-23T10:54:59.382Z,3116.00
2019-04-23T10:56:05.833Z,3040.00
2019-04-23T10:56:53.211Z,3040.00
2019-04-23T10:57:54.788Z,2940.00
2019-04-23T10:58:58.435Z,2940.00
2019-04-23T10:59:47.208Z,3008.00
2019-04-23T11:01:00.211Z,3096.00
2019-04-23T11:02:16.754Z,2996.00
2019-04-23T11:03:06.292Z,2940.00
2019-04-23T11:04:57.691Z,2952.00
2019-04-23T11:06:00.249Z,2936.00
2019-04-23T11:07:12.978Z,2992.00
2019-04-23T11:07:41.985Z,2980.00
2019-04-23T11:08:57.833Z,2960.00
2019-04-23T11:09:55.636Z,2924.00
2019-04-23T11:10:58.734Z,3136.00
2019-04-23T11:12:03.810Z,2948.00
2019-04-23T11:13:14.185Z,2972.00
2019-04-23T11:15:18.311Z,2996.00
2019-04-23T11:16:15.361Z,2892.00
2019-04-23T11:20:56.472Z,3036.00
2019-04-23T11:22:07.990Z,2936.00
2019-04-23T11:22:50.957Z,2996.00
2019-04-23T11:24:02.493Z,2972.00
2019-04-23T11:25:02.308Z,2984.00
2019-04-23T11:25:49.065Z,2948.00
2019-04-23T11:27:00.658Z,2924.00
2019-04-23T11:28:16.209Z,3080.00
2019-04-23T11:28:55.521Z,2824.00
2019-04-23T11:30:00.299Z,2780.00
2019-04-23T11:30:44.979Z,2864.00
2019-04-23T11:32:31.376Z,2880.00
2019-04-23T11:33:00.804Z,2864.00
2019-04-23T11:33:59.501Z,2740.00
2019-04-23T11:35:12.849Z,2864.00
2019-04-23T11:37:07.376Z,2808.00
2019-04-23T11:38:21.914Z,2820.00
2019-04-23T11:40:55.322Z,2824.00
2019-04-23T11:41:58.011Z,2568.00
2019-04-23T11:42:57.948Z,2804.00
2019-04-23T11:43:55.315Z,2780.00
2019-04-23T11:44:56.312Z,2704.00
2019-04-23T11:47:07.762Z,2840.00
2019-04-23T11:48:26.463Z,3016.00
2019-04-23T11:49:22.448Z,2956.00
2019-04-23T11:50:01.616Z,2988.00
2019-04-23T11:50:56.017Z,2844.00
2019-04-23T11:51:28.735Z,2916.00
2019-04-23T11:52:03.233Z,2968.00
2019-04-23T11:53:54.262Z,2904.00
2019-04-23T11:55:03.098Z,2724.00
2019-04-23T11:55:55.621Z,2948.00
2019-04-23T11:58:16.659Z,2984.00
2019-04-23T11:58:58.338Z,2968.00
2019-04-23T11:59:53.097Z,3152.00
2019-04-23T12:01:02.346Z,2952.00
2019-04-23T12:04:07.329Z,2932.00
2019-04-23T12:05:02.378Z,2872.00
2019-04-23T12:06:03.670Z,2808.00
2019-04-23T12:06:55.348Z,2880.00
2019-04-23T12:07:50.871Z,2964.00
2019-04-23T12:08:48.866Z,2952.00
2019-04-23T12:09:55.006Z,3032.00
2019-04-23T12:11:35.571Z,2952.00
2019-04-23T12:12:08.164Z,2928.00
2019-04-23T12:12:46.023Z,2940.00
2019-04-23T12:14:02.421Z,2880.00
2019-04-23T12:15:11.691Z,2808.00
2019-04-23T12:15:53.841Z,2696.00
2019-04-23T12:17:03.932Z,2852.00
2019-04-23T12:17:55.881Z,2792.00
2019-04-23T12:19:04.412Z,2744.00
2019-04-23T12:20:48.849Z,2736.00
2019-04-23T12:24:00.852Z,2824.00
2019-04-23T12:25:06.483Z,3084.00
2019-04-23T12:25:58.670Z,2872.00
2019-04-23T12:27:42.106Z,2824.00
2019-04-23T12:29:04.137Z,2896.00
2019-04-23T12:30:50.275Z,2916.00
2019-04-23T12:32:02.068Z,2888.00
2019-04-23T12:33:11.616Z,2696.00
2019-04-23T12:35:47.171Z,2792.00
2019-04-23T12:36:56.890Z,2732.00
2019-04-23T12:38:52.751Z,2524.00
2019-04-23T12:40:03.107Z,2756.00
2019-04-23T12:41:07.133Z,2748.00
2019-04-23T12:41:52.834Z,2712.00
2019-04-23T12:43:51.657Z,2732.00
2019-04-23T12:44:56.473Z,2648.00
2019-04-23T12:45:51.970Z,2592.00
2019-04-23T12:46:55.974Z,2596.00
2019-04-23T12:48:59.904Z,2676.00
2019-04-23T12:50:56.955Z,2592.00
2019-04-23T12:52:51.947Z,2676.00
2019-04-23T12:53:52.484Z,2692.00
2019-04-23T12:55:43.767Z,2612.00
2019-04-23T12:58:32.135Z,2876.00
2019-04-23T12:58:46.467Z,3020.00
2019-04-23T12:59:50.089Z,3212.00
2019-04-23T13:00:58.219Z,3008.00
2019-04-23T13:01:57.720Z,3012.00
2019-04-23T13:02:50.712Z,3172.00
2019-04-23T13:03:45.935Z,2992.00
2019-04-23T13:04:52.431Z,2944.00
2019-04-23T13:05:36.687Z,2964.00
2019-04-23T13:06:50.879Z,3064.00
2019-04-23T13:09:53.995Z,3036.00
2019-04-23T13:10:47.986Z,2876.00
2019-04-23T13:11:50.117Z,2912.00
2019-04-23T13:13:53.506Z,2904.00
2019-04-23T13:15:48.584Z,2920.00
2019-04-23T13:18:49.731Z,2980.00
2019-04-23T13:19:57.873Z,2920.00
2019-04-23T13:20:46.825Z,3008.00
2019-04-23T13:21:57.087Z,2864.00
2019-04-23T13:22:54.863Z,2772.00
2019-04-23T13:23:49.462Z,2900.00
2019-04-23T13:24:49.662Z,2812.00
2019-04-23T13:26:47.685Z,2812.00
2019-04-23T13:27:53.941Z,2748.00
2019-04-23T13:28:46.971Z,2652.00
2019-04-23T13:29:56.854Z,2984.00
2019-04-23T13:30:53.152Z,2744.00
2019-04-23T13:31:49.349Z,2820.00
2019-04-23T13:32:55.885Z,2736.00
2019-04-23T13:33:48.585Z,2780.00
2019-04-23T13:34:58.978Z,2780.00
2019-04-23T13:36:01.100Z,2712.00
2019-04-23T13:36:53.524Z,2852.00
2019-04-23T13:37:53.009Z,2736.00
2019-04-23T13:39:44.021Z,2732.00
2019-04-23T13:40:57.097Z,2764.00
2019-04-23T13:41:46.162Z,2612.00
2019-04-23T13:42:54.435Z,2584.00
2019-04-23T13:44:45.536Z,2808.00
2019-04-23T13:46:49.475Z,2752.00
2019-04-23T13:47:53.284Z,2632.00
2019-04-23T13:48:42.032Z,2708.00
2019-04-23T13:49:51.151Z,2720.00
2019-04-23T13:51:50.828Z,2636.00
2019-04-23T13:54:01.672Z,2832.00
2019-04-23T13:55:44.347Z,2636.00
2019-04-23T13:58:51.870Z,2672.00
2019-04-23T13:59:48.369Z,2740.00
2019-04-23T14:00:55.700Z,2684.00
2019-04-23T14:01:46.598Z,2632.00
2019-04-23T14:03:47.967Z,3108.00
2019-04-23T14:04:54.365Z,2676.00
2019-04-23T14:05:49.547Z,2504.00
2019-04-23T14:06:52.042Z,2528.00
2019-04-23T14:09:54.898Z,2560.00
2019-04-23T14:10:44.841Z,2552.00
2019-04-23T14:11:40.037Z,2464.00
2019-04-23T14:12:53.429Z,2540.00
2019-04-23T14:14:56.404Z,2640.00
2019-04-23T14:15:53.992Z,2640.00
2019-04-23T14:17:08.673Z,2768.00
2019-04-23T14:18:10.772Z,2724.00
2019-04-23T14:18:56.157Z,2528.00
2019-04-23T14:19:47.807Z,2544.00
2019-04-23T14:20:46.899Z,2536.00
2019-04-23T14:21:45.924Z,2584.00
2019-04-23T14:23:00.356Z,2664.00
2019-04-23T14:25:59.985Z,2680.00
2019-04-23T14:26:48.624Z,2600.00
2019-04-23T14:28:01.267Z,2732.00
2019-04-23T14:29:56.533Z,2636.00
2019-04-23T14:30:53.472Z,2584.00
2019-04-23T14:31:43.297Z,2580.00
2019-04-23T14:32:48.711Z,2628.00
2019-04-23T14:33:54.800Z,2616.00
2019-04-23T14:34:58.512Z,2640.00
2019-04-23T14:35:45.340Z,2680.00
2019-04-23T14:36:52.109Z,2728.00
2019-04-23T14:38:03.762Z,2688.00
2019-04-23T14:39:06.164Z,2692.00
2019-04-23T14:39:45.838Z,2636.00
2019-04-23T14:40:59.325Z,2652.00
2019-04-23T14:41:52.273Z,2652.00
2019-04-23T14:42:56.781Z,2656.00
2019-04-23T14:44:56.150Z,2576.00
2019-04-23T14:46:13.729Z,2676.00
2019-04-23T14:47:54.367Z,2660.00
2019-04-23T14:49:58.891Z,2676.00
2019-04-23T14:50:51.705Z,2668.00
2019-04-23T14:52:57.956Z,2616.00
2019-04-23T14:53:43.751Z,2600.00
2019-04-23T14:56:44.856Z,2588.00
2019-04-23T14:57:51.601Z,2400.00
2019-04-23T14:58:50.718Z,2280.00
2019-04-23T14:59:46.834Z,2232.00
2019-04-23T15:00:54.455Z,2144.00
2019-04-23T15:02:52.150Z,2376.00
2019-04-23T15:03:46.874Z,2284.00
2019-04-23T15:04:48.220Z,2208.00
2019-04-23T15:05:59.717Z,2240.00
2019-04-23T15:06:55.734Z,2116.00
2019-04-23T15:07:46.652Z,2444.00
2019-04-23T15:11:05.254Z,2304.00
2019-04-23T15:12:47.797Z,2348.00
2019-04-23T15:13:44.795Z,2424.00
2019-04-23T15:14:57.487Z,2428.00
2019-04-23T15:16:03.090Z,2308.00
2019-04-23T15:16:44.889Z,2148.00
2019-04-23T15:19:07.942Z,2080.00
2019-04-23T15:20:53.421Z,2192.00
2019-04-23T15:21:57.986Z,2148.00
2019-04-23T15:23:13.762Z,2132.00
2019-04-23T15:25:15.609Z,2332.00
2019-04-23T15:27:47.810Z,2228.00
2019-04-23T15:28:20.313Z,2472.00